Time;durP1;ratioP1;P1;durP2;ratioP2;P2;SDS_P1;SDS_P2;PMS_P1;PMS_P2;Temp;Humidity;BMP_temperature;BMP_pressure;BME280_temperature;BME280_humidity;BME280_pressure;Samples;Min_cycle;Max_cycle;Signal;HPM_P1;HPM_P2
2022/01/15 00:02:11;;;;;;;14.38;4.15;;;;;;;0.29;80.42;100712.78;1838029;77;26157;-70
2022/01/15 00:04:37;;;;;;;12.63;4.20;;;;;;;0.28;80.32;100712.52;1837707;78;25747;-71
2022/01/15 00:07:04;;;;;;;17.95;4.62;;;;;;;0.28;80.23;100716.50;1838079;78;27910;-71
2022/01/15 00:09:30;;;;;;;13.45;3.98;;;;;;;0.28;80.27;100709.33;1837801;78;25625;-71
2022/01/15 00:11:58;;;;;;;13.08;4.67;;;;;;;0.28;80.15;100720.50;1837757;78;25712;-71
2022/01/15 00:14:29;;;;;;;11.75;3.87;;;;;;;0.28;80.16;100727.15;1817087;78;26007;-71
2022/01/15 00:17:06;;;;;;;11.48;3.85;;;;;;;0.26;80.09;100718.06;1790152;78;25634;-70
2022/01/15 00:19:40;;;;;;;15.08;4.95;;;;;;;0.26;80.14;100726.58;1836647;77;25882;-72
2022/01/15 00:21:54;;;;;;;9.98;2.90;;;;;;;0.24;79.90;100723.30;1836112;77;25545;-71
2022/01/15 00:24:22;;;;;;;12.45;4.75;;;;;;;0.23;79.89;100718.52;1838206;77;25698;-71
2022/01/15 00:26:51;;;;;;;12.25;3.72;;;;;;;0.22;79.76;100726.73;1838203;77;26369;-70
2022/01/15 00:29:18;;;;;;;13.80;3.85;;;;;;;0.23;79.68;100713.72;1838441;78;25614;-70
2022/01/15 00:31:44;;;;;;;14.18;4.22;;;;;;;0.22;79.80;100714.22;1838371;78;27326;-72
2022/01/15 00:34:11;;;;;;;14.03;3.45;;;;;;;0.23;79.64;100721.70;1838217;78;25517;-71
2022/01/15 00:36:38;;;;;;;10.72;3.83;;;;;;;0.23;79.62;100722.51;1838300;78;25558;-71
2022/01/15 00:39:05;;;;;;;12.03;4.05;;;;;;;0.24;79.54;100712.17;1838299;78;26107;-71
2022/01/15 00:41:32;;;;;;;19.50;6.17;;;;;;;0.23;79.34;100709.73;1838264;78;25417;-71
2022/01/15 00:44:06;;;;;;;12.03;3.90;;;;;;;0.23;79.41;100709.20;1838324;78;27329;-72
2022/01/15 00:46:33;;;;;;;12.20;3.17;;;;;;;0.24;79.49;100715.33;1818064;78;25601;-72
2022/01/15 00:48:59;;;;;;;17.40;4.20;;;;;;;0.22;79.31;100704.11;1817640;78;25420;-72
2022/01/15 00:51:26;;;;;;;13.83;3.47;;;;;;;0.23;79.54;100711.86;1817358;78;26067;-72
2022/01/15 00:53:53;;;;;;;7.70;3.08;;;;;;;0.21;79.24;100705.97;1838374;78;25340;-70
2022/01/15 00:56:19;;;;;;;13.00;3.05;;;;;;;0.21;79.29;100713.95;1838337;78;27387;-71
2022/01/15 00:58:46;;;;;;;10.85;3.75;;;;;;;0.22;79.17;100716.88;1838223;77;25656;-71
2022/01/15 01:01:13;;;;;;;17.60;5.75;;;;;;;0.25;79.25;100708.45;1838327;78;25584;-70
2022/01/15 01:03:39;;;;;;;12.50;3.47;;;;;;;0.24;79.24;100704.19;1838263;78;25621;-70
2022/01/15 01:06:06;;;;;;;15.00;4.83;;;;;;;0.24;79.24;100712.66;1817531;78;25618;-70
2022/01/15 01:08:32;;;;;;;12.70;4.10;;;;;;;0.24;79.17;100705.52;1838281;77;27322;-70
2022/01/15 01:11:02;;;;;;;8.08;3.35;;;;;;;0.25;79.16;100718.29;1838186;78;25518;-70
2022/01/15 01:24:28;;;;;;;9.63;3.47;;;;;;;0.14;79.30;100724.70;1838110;78;25586;-70
2022/01/15 01:27:05;;;;;;;12.15;4.10;;;;;;;0.12;79.13;100733.93;1838234;78;25569;-71
2022/01/15 01:29:38;;;;;;;12.55;3.45;;;;;;;0.11;79.37;100727.01;1837876;77;26132;-70
2022/01/15 01:34:30;;;;;;;8.55;3.33;;;;;;;0.06;79.27;100730.34;1838239;77;27878;-69
2022/01/15 01:39:32;;;;;;;14.20;3.80;;;;;;;0.07;79.37;100730.64;1838306;77;25527;-71
2022/01/15 01:44:24;;;;;;;9.00;3.33;;;;;;;0.05;79.36;100723.91;1746498;82;25601;-69
2022/01/15 01:47:01;;;;;;;12.13;3.25;;;;;;;0.04;79.37;100719.66;1746147;81;27103;-70
2022/01/15 01:49:20;;;;;;;10.72;3.12;;;;;;;0.01;79.43;100720.91;1744589;82;25657;-71
2022/01/15 01:51:47;;;;;;;8.15;2.58;;;;;;;0.01;79.42;100711.59;1721374;82;25576;-71
2022/01/15 01:54:17;;;;;;;12.93;3.22;;;;;;;0.01;79.42;100717.45;1721488;82;27461;-69
2022/01/15 01:56:43;;;;;;;15.35;4.03;;;;;;;0.01;79.44;100721.44;1746424;82;25493;-70
2022/01/15 01:59:10;;;;;;;14.05;4.03;;;;;;;0.00;79.48;100716.64;1746253;82;27389;-70
2022/01/15 02:01:37;;;;;;;12.63;3.87;;;;;;;-0.01;79.47;100721.66;1746268;82;25699;-70
2022/01/15 02:04:04;;;;;;;9.58;4.40;;;;;;;-0.02;79.53;100716.04;1746382;82;25524;-70
2022/01/15 02:06:32;;;;;;;12.68;3.15;;;;;;;-0.03;79.60;100723.22;1746347;82;25630;-70
2022/01/15 02:08:59;;;;;;;11.00;3.40;;;;;;;-0.03;79.62;100726.41;1746335;82;25690;-70
2022/01/15 02:11:27;;;;;;;9.28;3.30;;;;;;;-0.04;79.57;100726.90;1721463;82;27324;-70
2022/01/15 02:13:53;;;;;;;11.80;3.20;;;;;;;-0.04;79.66;100724.77;1746244;82;25674;-70
2022/01/15 02:16:21;;;;;;;8.35;2.50;;;;;;;-0.05;79.66;100726.62;1746307;82;25682;-70
2022/01/15 02:18:54;;;;;;;13.58;3.72;;;;;;;-0.07;79.70;100722.55;1746210;82;25648;-70
2022/01/15 02:24:07;;;;;;;11.83;3.05;;;;;;;-0.10;79.73;100719.85;1838396;77;27565;-69
2022/01/15 02:26:37;;;;;;;14.47;3.60;;;;;;;-0.10;79.92;100717.19;1843735;77;25432;-69
2022/01/15 02:29:03;;;;;;;13.20;3.33;;;;;;;-0.12;79.98;100703.81;1843465;77;25375;-70
2022/01/15 02:31:32;;;;;;;17.67;4.53;;;;;;;-0.15;80.09;100719.72;1843738;77;25628;-70
2022/01/15 02:34:03;;;;;;;10.50;3.27;;;;;;;-0.14;80.13;100718.66;1843983;77;25609;-70
2022/01/15 02:36:35;;;;;;;15.40;3.10;;;;;;;-0.14;80.33;100718.66;1843843;77;27315;-70
2022/01/15 02:39:05;;;;;;;11.08;2.52;;;;;;;-0.14;80.37;100724.52;1843697;77;25575;-69
2022/01/15 02:41:37;;;;;;;11.43;2.77;;;;;;;-0.16;80.40;100702.66;1843965;77;25367;-69
2022/01/15 02:44:16;;;;;;;13.13;3.20;;;;;;;-0.16;80.47;100703.99;1843813;77;25663;-69
2022/01/15 02:49:17;;;;;;;13.95;3.33;;;;;;;-0.17;80.65;100701.03;1843836;77;27322;-69
2022/01/15 02:51:43;;;;;;;13.45;3.22;;;;;;;-0.19;80.63;100711.89;1843686;77;25697;-69
2022/01/15 02:54:10;;;;;;;13.72;3.25;;;;;;;-0.21;80.73;100710.78;1843909;77;25583;-71
2022/01/15 02:56:40;;;;;;;16.00;3.40;;;;;;;-0.23;80.86;100712.86;1786324;77;25531;-69
2022/01/15 02:59:18;;;;;;;17.98;4.00;;;;;;;-0.24;80.89;100709.93;1843852;77;25632;-70
2022/01/15 03:01:45;;;;;;;12.07;3.30;;;;;;;-0.26;81.00;100713.84;1844557;77;27354;-70
2022/01/15 03:04:12;;;;;;;17.50;3.22;;;;;;;-0.28;81.01;100718.05;1844017;77;25947;-69
2022/01/15 03:06:39;;;;;;;15.25;3.52;;;;;;;-0.29;81.20;100712.45;1843987;77;25608;-70
2022/01/15 03:09:05;;;;;;;18.40;4.53;;;;;;;-0.28;81.22;100711.41;1843963;77;25619;-70
2022/01/15 03:11:32;;;;;;;10.55;3.25;;;;;;;-0.32;81.17;100711.58;1843981;77;25397;-70
2022/01/15 03:14:00;;;;;;;10.08;2.87;;;;;;;-0.33;81.32;100711.80;1844045;77;27315;-70
2022/01/15 03:16:27;;;;;;;11.38;3.80;;;;;;;-0.35;81.40;100711.22;1844014;77;25583;-70
2022/01/15 03:18:53;;;;;;;13.65;3.27;;;;;;;-0.36;81.45;100706.93;1844092;77;25573;-70
2022/01/15 03:21:20;;;;;;;13.32;3.05;;;;;;;-0.38;81.52;100701.84;1844048;77;25663;-70
2022/01/15 03:23:47;;;;;;;15.23;3.55;;;;;;;-0.39;81.59;100707.68;1844103;77;25564;-70
2022/01/15 03:26:14;;;;;;;11.22;3.42;;;;;;;-0.39;81.63;100705.55;1843952;77;27311;-70
2022/01/15 03:28:43;;;;;;;12.40;3.17;;;;;;;-0.40;81.69;100719.34;1843983;77;25382;-70
2022/01/15 03:31:11;;;;;;;16.10;3.72;;;;;;;-0.39;81.79;100714.33;1844230;77;25423;-70
2022/01/15 03:33:37;;;;;;;12.95;4.72;;;;;;;-0.38;81.81;100708.48;1843935;77;25623;-71
2022/01/15 03:36:04;;;;;;;14.28;3.80;;;;;;;-0.40;81.79;100719.34;1843970;77;25624;-71
2022/01/15 03:38:31;;;;;;;15.83;3.55;;;;;;;-0.39;81.79;100716.18;1844041;77;27124;-70
2022/01/15 03:40:58;;;;;;;13.50;3.35;;;;;;;-0.41;81.82;100724.38;1843831;77;25420;-71
2022/01/15 03:43:24;;;;;;;14.70;4.08;;;;;;;-0.40;81.87;100733.16;1843969;77;25411;-71
2022/01/15 03:45:51;;;;;;;9.30;4.20;;;;;;;-0.41;81.82;100721.72;1843896;77;25434;-71
2022/01/15 03:48:18;;;;;;;11.85;3.80;;;;;;;-0.42;81.80;100717.95;1843994;77;25611;-71
2022/01/15 03:50:44;;;;;;;18.25;3.27;;;;;;;-0.44;81.87;100724.02;1843923;77;27299;-70
2022/01/15 03:53:11;;;;;;;14.23;3.58;;;;;;;-0.46;81.85;100724.24;1823009;77;25608;-70
2022/01/15 03:55:38;;;;;;;10.90;3.17;;;;;;;-0.47;81.88;100730.58;1843957;77;25604;-70
2022/01/15 03:58:04;;;;;;;10.25;2.85;;;;;;;-0.50;81.93;100741.66;1843889;77;25611;-70
2022/01/15 04:00:31;;;;;;;10.82;2.60;;;;;;;-0.52;82.02;100731.77;1843907;77;25438;-70
2022/01/15 04:02:58;;;;;;;13.35;3.20;;;;;;;-0.51;82.08;100736.56;1843929;77;27273;-70
2022/01/15 04:05:25;;;;;;;12.73;3.17;;;;;;;-0.52;82.09;100734.43;1843858;77;25523;-70
2022/01/15 04:07:52;;;;;;;12.23;2.77;;;;;;;-0.56;82.14;100730.61;1843936;77;25555;-70
2022/01/15 04:10:19;;;;;;;10.15;2.70;;;;;;;-0.53;82.18;100736.78;1822831;77;25618;-71
2022/01/15 04:12:45;;;;;;;9.23;2.58;;;;;;;-0.53;82.18;100733.32;1843919;77;25479;-71
2022/01/15 04:15:14;;;;;;;10.32;3.30;;;;;;;-0.55;82.22;100734.88;1843884;77;27318;-71
2022/01/15 04:17:43;;;;;;;11.08;2.17;;;;;;;-0.57;82.23;100731.63;1822944;77;25609;-71
2022/01/15 04:20:12;;;;;;;24.25;3.65;;;;;;;-0.55;82.26;100740.19;1844080;77;25549;-71
2022/01/15 04:22:38;;;;;;;13.62;3.08;;;;;;;-0.55;82.33;100744.70;1843863;77;25709;-71
2022/01/15 04:25:06;;;;;;;10.32;2.75;;;;;;;-0.56;82.30;100762.50;1842930;77;25512;-71
2022/01/15 04:27:32;;;;;;;7.20;2.40;;;;;;;-0.57;82.31;100777.61;1834968;78;27354;-71
2022/01/15 04:30:03;;;;;;;13.53;2.77;;;;;;;-0.58;82.17;100781.32;1838224;77;25588;-71
2022/01/15 04:32:27;;;;;;;14.65;2.75;;;;;;;-0.61;82.06;100784.41;1838012;77;25465;-71
2022/01/15 04:34:54;;;;;;;10.93;2.50;;;;;;;-0.61;82.13;100797.70;1838341;78;25623;-71
2022/01/15 04:37:23;;;;;;;12.37;3.40;;;;;;;-0.62;82.24;100799.25;1838313;78;25541;-71
2022/01/15 04:39:49;;;;;;;10.28;2.35;;;;;;;-0.64;82.38;100792.02;1838332;78;27867;-69
2022/01/15 04:42:16;;;;;;;10.68;2.52;;;;;;;-0.64;82.47;100798.14;1838324;78;25498;-70
2022/01/15 04:44:43;;;;;;;13.88;2.65;;;;;;;-0.64;82.50;100796.81;1817322;78;25385;-70
2022/01/15 04:47:09;;;;;;;12.00;2.80;;;;;;;-0.65;82.38;100807.66;1838276;78;26557;-70
2022/01/15 04:49:35;;;;;;;10.75;2.27;;;;;;;-0.66;82.36;100811.37;1838288;78;25585;-70
2022/01/15 04:52:03;;;;;;;12.75;3.47;;;;;;;-0.70;82.39;100815.48;1838306;78;27386;-70
2022/01/15 04:54:29;;;;;;;14.45;2.87;;;;;;;-0.70;82.39;100823.45;1838276;78;25713;-71
2022/01/15 04:56:55;;;;;;;12.63;3.17;;;;;;;-0.73;82.50;100818.58;1838736;77;25473;-69
2022/01/15 04:59:23;;;;;;;18.30;3.90;;;;;;;-0.73;82.41;100825.22;1838858;78;26451;-69
2022/01/15 05:01:50;;;;;;;13.18;3.45;;;;;;;-0.74;82.49;100836.37;1838947;78;25569;-71
2022/01/15 05:04:18;;;;;;;13.48;3.08;;;;;;;-0.78;82.43;100830.69;1838988;77;27293;-69
2022/01/15 05:06:44;;;;;;;10.95;2.92;;;;;;;-0.80;82.55;100834.58;1838564;78;25444;-69
2022/01/15 05:09:12;;;;;;;12.40;2.70;;;;;;;-0.81;82.68;100834.30;1838363;77;25625;-69
2022/01/15 05:11:55;;;;;;;13.58;3.25;;;;;;;-0.83;82.83;100831.06;1838327;77;25631;-69
2022/01/15 05:14:18;;;;;;;15.00;3.83;;;;;;;-0.85;82.83;100829.95;1837253;77;25364;-70
2022/01/15 05:16:45;;;;;;;12.70;3.15;;;;;;;-0.87;82.83;100833.34;1838274;78;27309;-69
2022/01/15 05:19:12;;;;;;;13.50;4.05;;;;;;;-0.87;83.00;100829.86;1838129;78;25511;-69
2022/01/15 05:21:39;;;;;;;11.78;3.62;;;;;;;-0.88;83.08;100838.88;1838397;78;25380;-69
2022/01/15 05:24:07;;;;;;;15.13;4.17;;;;;;;-0.88;83.16;100830.91;1838383;78;25623;-69
2022/01/15 05:26:35;;;;;;;16.97;3.98;;;;;;;-0.91;83.18;100836.13;1838248;78;25377;-69
2022/01/15 05:29:02;;;;;;;14.28;4.10;;;;;;;-0.93;83.24;100833.41;1838268;78;26955;-69
2022/01/15 05:31:32;;;;;;;14.40;4.25;;;;;;;-0.95;83.33;100839.74;1838212;77;25419;-69
2022/01/15 05:33:58;;;;;;;;;;;;;;;-0.98;83.33;100844.16;1838076;78;25359;-69
2022/01/15 05:36:26;;;;;;;17.60;4.85;;;;;;;-0.99;83.39;100851.84;1838342;78;25816;-69
2022/01/15 05:38:53;;;;;;;15.25;4.00;;;;;;;-1.01;83.48;100851.75;1817729;78;25397;-69
2022/01/15 05:41:19;;;;;;;16.32;4.25;;;;;;;-1.03;83.57;100845.84;1838313;78;27442;-69
2022/01/15 05:43:46;;;;;;;17.85;5.08;;;;;;;-1.04;83.71;100849.03;1838227;78;25770;-69
2022/01/15 05:46:15;;;;;;;19.02;4.97;;;;;;;-1.05;83.75;100846.06;1838360;78;25654;-69
2022/01/15 05:48:41;;;;;;;14.95;6.72;;;;;;;-1.06;83.77;100847.08;1838349;77;25623;-69
2022/01/15 05:51:08;;;;;;;28.15;9.00;;;;;;;-1.07;83.78;100845.97;1838254;78;25588;-69
2022/01/15 05:53:37;;;;;;;18.95;7.58;;;;;;;-1.10;83.82;100843.78;1838280;78;27317;-69
2022/01/15 05:56:05;;;;;;;37.23;11.37;;;;;;;-1.11;83.87;100842.94;1838445;78;25273;-69
2022/01/15 05:58:32;;;;;;;38.85;12.15;;;;;;;-1.13;83.94;100835.19;1838240;78;25655;-69
2022/01/15 06:00:58;;;;;;;41.48;12.58;;;;;;;-1.15;84.13;100844.42;1838267;78;25925;-69
2022/01/15 06:03:26;;;;;;;23.05;7.35;;;;;;;-1.16;84.18;100847.59;1838288;78;25415;-69
2022/01/15 06:05:53;;;;;;;25.17;8.40;;;;;;;-1.17;84.22;100851.80;1838345;78;28010;-69
2022/01/15 06:08:20;;;;;;;27.58;11.25;;;;;;;-1.18;84.33;100855.47;1838326;77;25695;-69
2022/01/15 06:10:47;;;;;;;23.77;7.15;;;;;;;-1.18;84.42;100863.43;1838536;77;25211;-69
2022/01/15 06:13:14;;;;;;;27.73;8.43;;;;;;;-1.19;84.53;100863.95;1817825;78;25634;-69
2022/01/15 06:15:40;;;;;;;22.20;8.70;;;;;;;-1.20;84.52;100872.13;1838750;78;25370;-69
2022/01/15 06:18:07;;;;;;;18.65;7.97;;;;;;;-1.21;84.54;100871.83;1838570;78;27322;-69
2022/01/15 06:20:35;;;;;;;17.23;6.17;;;;;;;-1.21;84.54;100868.67;1817440;78;25975;-69
2022/01/15 06:23:02;;;;;;;13.72;5.42;;;;;;;-1.22;84.58;100864.91;1817759;78;25572;-70
2022/01/15 06:25:29;;;;;;;14.95;6.15;;;;;;;-1.23;84.71;100860.09;1838125;77;25621;-70
2022/01/15 06:27:56;;;;;;;15.65;5.33;;;;;;;-1.24;84.77;100860.30;1838244;77;25435;-70
2022/01/15 06:30:23;;;;;;;15.80;6.12;;;;;;;-1.24;84.83;100869.10;1838232;78;27940;-69
2022/01/15 06:32:50;;;;;;;19.70;5.47;;;;;;;-1.24;84.82;100872.25;1838147;77;25648;-69
2022/01/15 06:35:21;;;;;;;18.98;5.60;;;;;;;-1.27;85.09;100860.23;1838468;77;25417;-70
2022/01/15 06:37:49;;;;;;;16.40;4.87;;;;;;;-1.25;84.99;100877.28;1838525;77;25811;-69
2022/01/15 06:40:17;;;;;;;17.32;5.58;;;;;;;-1.25;85.12;100882.59;1838538;78;25420;-70
2022/01/15 06:42:45;;;;;;;15.48;5.12;;;;;;;-1.25;85.18;100885.24;1838506;78;27297;-71
2022/01/15 06:45:12;;;;;;;15.80;5.85;;;;;;;-1.26;85.13;100888.42;1838412;78;25365;-70
2022/01/15 06:47:40;;;;;;;16.27;5.60;;;;;;;-1.25;85.18;100888.70;1817988;78;25548;-70
2022/01/15 06:50:09;;;;;;;14.23;5.85;;;;;;;-1.24;85.14;100896.97;1838508;78;26310;-71
2022/01/15 06:52:38;;;;;;;15.95;5.85;;;;;;;-1.24;85.14;100895.64;1838655;78;25577;-71
2022/01/15 06:55:08;;;;;;;20.05;6.17;;;;;;;-1.25;85.25;100895.34;1838673;77;28019;-71
2022/01/15 06:57:35;;;;;;;16.62;5.05;;;;;;;-1.23;85.33;100904.41;1838369;78;25547;-71
2022/01/15 07:00:04;;;;;;;24.85;6.20;;;;;;;-1.23;85.47;100901.77;1817930;78;25565;-71
2022/01/15 07:02:31;;;;;;;16.23;5.17;;;;;;;-1.23;85.44;100896.45;1837842;77;25611;-71
2022/01/15 07:04:58;;;;;;;18.00;5.65;;;;;;;-1.21;85.53;100906.33;1817633;78;25656;-71
2022/01/15 07:07:25;;;;;;;16.07;5.50;;;;;;;-1.19;85.48;100905.59;1838475;78;26844;-70
2022/01/15 07:09:52;;;;;;;16.57;4.97;;;;;;;-1.17;85.50;100911.53;1838417;78;25683;-70
2022/01/15 07:12:19;;;;;;;15.35;4.95;;;;;;;-1.16;85.49;100911.31;1838460;78;25547;-70
2022/01/15 07:14:45;;;;;;;12.43;4.60;;;;;;;-1.13;85.47;100912.19;1838467;78;26358;-70
2022/01/15 07:17:13;;;;;;;12.93;4.58;;;;;;;-1.12;85.50;100918.33;1838503;78;25529;-70
2022/01/15 07:19:40;;;;;;;18.45;5.28;;;;;;;-1.10;85.54;100917.59;1838552;78;27320;-70
2022/01/15 07:22:08;;;;;;;12.55;4.62;;;;;;;-1.09;85.52;100919.73;1838422;78;25564;-70
2022/01/15 07:24:35;;;;;;;24.35;7.83;;;;;;;-1.05;85.62;100922.27;1838495;78;25541;-70
2022/01/15 07:27:03;;;;;;;37.63;9.65;;;;;;;-1.03;85.60;100924.98;1838313;78;26266;-70
2022/01/15 07:29:30;;;;;;;35.33;12.98;;;;;;;-0.99;85.60;100925.37;1845486;77;25441;-70
2022/01/15 07:31:57;;;;;;;34.95;11.90;;;;;;;-0.97;85.64;100929.94;1838470;77;27985;-70
2022/01/15 07:34:25;;;;;;;22.80;8.30;;;;;;;-0.92;85.67;100914.69;1838380;78;25561;-70
2022/01/15 07:36:57;;;;;;;27.73;9.18;;;;;;;-0.89;85.64;100919.58;1838516;77;25378;-70
2022/01/15 07:39:25;;;;;;;25.40;9.65;;;;;;;-0.86;85.62;100918.63;1838509;78;25794;-70
2022/01/15 07:41:52;;;;;;;20.10;7.45;;;;;;;-0.83;85.68;100924.83;1838874;78;25425;-70
2022/01/15 07:44:19;;;;;;;25.92;6.80;;;;;;;-0.77;85.87;100931.95;1838807;78;27307;-70
2022/01/15 07:46:45;;;;;;;16.15;7.10;;;;;;;-0.69;85.86;100934.02;1838548;78;25589;-70
2022/01/15 07:49:12;;;;;;;18.30;7.47;;;;;;;-0.63;85.72;100940.61;1838485;78;25427;-71
2022/01/15 07:51:39;;;;;;;21.35;8.03;;;;;;;-0.57;85.61;100952.20;1837614;78;25619;-70
2022/01/15 07:54:05;;;;;;;18.80;7.33;;;;;;;-0.51;85.75;100960.63;1838322;77;25683;-71
2022/01/15 07:56:32;;;;;;;23.73;7.15;;;;;;;-0.41;85.87;100963.61;1838386;78;27311;-70
2022/01/15 07:58:58;;;;;;;16.73;6.03;;;;;;;-0.27;86.32;100968.80;1838266;77;25458;-70
2022/01/15 08:01:28;;;;;;;23.42;6.03;;;;;;;-0.12;86.17;100967.09;1838312;78;25673;-70
2022/01/15 08:03:54;;;;;;;15.88;5.92;;;;;;;0.07;86.28;100962.08;1838445;77;25805;-70
2022/01/15 08:06:21;;;;;;;14.43;5.28;;;;;;;0.35;86.44;100965.50;1838335;77;25583;-70
2022/01/15 08:08:48;;;;;;;18.62;4.33;;;;;;;0.69;87.33;100958.41;1817645;78;27324;-70
2022/01/15 08:11:15;;;;;;;15.30;4.45;;;;;;;1.11;86.71;100955.74;1838246;77;25604;-70
2022/01/15 08:13:41;;;;;;;14.85;4.22;;;;;;;1.45;85.79;100960.81;1838345;78;25531;-70
2022/01/15 08:16:09;;;;;;;14.55;4.67;;;;;;;1.78;86.44;100975.40;1838360;78;25645;-70
2022/01/15 08:18:36;;;;;;;14.60;4.42;;;;;;;2.30;86.06;100972.45;1838465;78;25628;-71
2022/01/15 08:21:05;;;;;;;11.95;3.90;;;;;;;2.68;84.67;100981.20;1838374;78;27438;-71
2022/01/15 08:23:35;;;;;;;14.60;4.63;;;;;;;2.99;83.83;100983.88;1838490;77;25694;-71
2022/01/15 08:26:03;;;;;;;19.12;4.65;;;;;;;3.36;83.51;100967.91;1792068;77;25403;-71
2022/01/15 08:28:30;;;;;;;16.07;5.12;;;;;;;3.77;82.50;100971.72;1843751;77;25675;-71
2022/01/15 08:30:57;;;;;;;14.98;4.40;;;;;;;4.05;81.67;100967.55;1795948;77;25529;-71
2022/01/15 08:33:24;;;;;;;14.63;4.58;;;;;;;4.45;81.03;100970.41;1843959;77;27168;-71
2022/01/15 08:35:51;;;;;;;16.48;4.97;;;;;;;4.69;78.76;100970.13;1843924;77;26096;-71
2022/01/15 08:38:18;;;;;;;28.30;6.95;;;;;;;4.96;79.17;100967.97;1844174;77;25399;-71
2022/01/15 08:40:45;;;;;;;14.05;5.12;;;;;;;5.29;78.93;100968.23;1823271;77;25677;-71
2022/01/15 08:43:12;;;;;;;15.78;4.55;;;;;;;5.62;77.85;100975.72;1844171;77;25385;-71
2022/01/15 08:45:39;;;;;;;12.88;4.33;;;;;;;5.87;76.47;100980.41;1844091;77;28083;-71
2022/01/15 08:48:07;;;;;;;10.15;4.40;;;;;;;6.15;76.87;100975.76;1844114;77;25593;-71
2022/01/15 08:50:35;;;;;;;17.32;5.17;;;;;;;6.63;76.95;100973.75;1844945;77;25509;-71
2022/01/15 08:53:06;;;;;;;13.48;4.78;;;;;;;7.01;75.22;100968.16;1823269;77;26038;-72
2022/01/15 08:55:36;;;;;;;14.20;4.47;;;;;;;7.25;73.44;100955.80;1814277;77;25623;-72
2022/01/15 08:58:03;;;;;;;13.90;4.05;;;;;;;7.36;72.49;100961.16;1844127;77;27476;-72
2022/01/15 09:00:32;;;;;;;13.88;4.60;;;;;;;7.44;70.90;100976.73;1814375;77;25630;-72
2022/01/15 09:02:58;;;;;;;23.95;7.97;;;;;;;7.47;70.49;100978.90;1843976;77;25414;-72
2022/01/15 09:05:26;;;;;;;18.00;5.40;;;;;;;7.57;70.23;100978.08;1843934;77;25684;-72
2022/01/15 09:07:54;;;;;;;12.95;4.75;;;;;;;7.79;71.05;100989.89;1843997;77;25603;-72
2022/01/15 09:10:21;;;;;;;14.05;5.35;;;;;;;8.23;70.86;100986.52;1843984;77;28006;-72
2022/01/15 09:12:48;;;;;;;17.80;4.80;;;;;;;8.49;69.30;100990.47;1843899;77;25514;-73
2022/01/15 09:15:16;;;;;;;15.43;5.40;;;;;;;8.74;69.85;100990.33;1823255;77;25617;-72
2022/01/15 09:17:43;;;;;;;16.27;5.50;;;;;;;9.08;68.09;100985.51;1843763;77;26148;-73
2022/01/15 09:20:11;;;;;;;17.37;6.42;;;;;;;9.26;67.12;100982.68;1823156;77;25619;-73
2022/01/15 09:22:38;;;;;;;17.90;5.78;;;;;;;9.33;67.48;100986.37;1823312;77;27884;-73
2022/01/15 09:25:05;;;;;;;18.98;6.33;;;;;;;9.65;66.36;100988.53;1843783;77;25493;-72
2022/01/15 09:30:17;;;;;;;13.18;5.83;;;;;;;9.96;64.74;100979.27;1855639;77;25608;-74
2022/01/15 09:32:48;;;;;;;17.20;5.40;;;;;;;9.87;63.48;100986.66;1855556;77;25442;-72
2022/01/15 09:35:18;;;;;;;14.28;4.97;;;;;;;9.90;63.25;100992.05;1855668;77;27086;-73
2022/01/15 09:37:47;;;;;;;12.63;5.12;;;;;;;9.83;62.25;101001.84;1855374;77;25439;-71
2022/01/15 09:40:14;;;;;;;15.43;5.08;;;;;;;9.39;61.35;101006.85;1855539;77;25420;-70
2022/01/15 09:42:44;;;;;;;26.35;12.18;;;;;;;9.04;62.19;101005.23;1855448;77;26187;-74
2022/01/15 09:45:10;;;;;;;;;;;;;;;8.84;62.64;101008.90;1824459;77;25531;-75
2022/01/15 09:47:38;;;;;;;11.83;4.70;;;;;;;8.68;62.91;101014.91;1811230;78;27252;-75
2022/01/15 09:50:18;;;;;;;15.68;5.03;;;;;;;8.49;62.48;101008.80;1813913;79;25202;-73
2022/01/15 09:52:45;;;;;;;15.72;6.30;;;;;;;8.10;62.20;101008.66;1783208;79;25488;-74
2022/01/15 09:55:14;;;;;;;16.67;5.60;;;;;;;7.94;63.05;100998.48;1774022;79;25676;-74
2022/01/15 09:57:42;;;;;;;17.53;4.80;;;;;;;7.75;63.29;101004.99;1813597;79;25621;-73
2022/01/15 10:00:15;;;;;;;16.90;6.20;;;;;;;7.42;62.40;101014.72;1812944;79;27315;-75
2022/01/15 10:02:44;;;;;;;22.60;8.80;;;;;;;6.95;62.64;101013.08;1812942;79;25439;-73
2022/01/15 10:05:13;;;;;;;17.15;6.67;;;;;;;6.88;64.31;101013.88;1813106;79;25552;-73
2022/01/15 10:08:00;;;;;;;12.58;5.05;;;;;;;6.67;63.86;101015.14;1783393;79;25498;-73
2022/01/15 10:10:30;;;;;;;16.12;5.10;;;;;;;6.45;63.73;101018.58;1838906;78;25577;-74
2022/01/15 10:13:24;;;;;;;19.25;7.65;;;;;;;6.38;64.86;101020.70;1812670;79;27388;-74
2022/01/15 10:16:02;;;;;;;30.45;11.45;;;;;;;6.17;64.69;101021.42;1808658;79;25555;-74
2022/01/15 10:18:32;;;;;;;30.95;10.25;;;;;;;5.83;65.04;101022.82;1811511;79;25669;-74
2022/01/15 10:21:29;;;;;;;18.67;5.78;;;;;;;5.61;64.75;101028.56;1812940;79;26310;-73
2022/01/15 10:23:56;;;;;;;16.95;4.53;;;;;;;5.30;64.66;101034.23;1811100;79;25551;-73
2022/01/15 10:26:28;;;;;;;15.08;5.92;;;;;;;5.02;65.70;101028.61;1783669;79;27948;-74
2022/01/15 10:28:59;;;;;;;21.50;7.33;;;;;;;4.86;65.72;101027.66;1795583;79;25703;-74
2022/01/15 10:31:39;;;;;;;22.32;7.83;;;;;;;4.66;66.19;101036.28;1795364;79;25651;-72
2022/01/15 10:34:29;;;;;;;24.35;8.98;;;;;;;4.40;66.48;101024.47;1795000;79;26431;-72
2022/01/15 10:37:07;;;;;;;18.80;7.42;;;;;;;4.23;67.20;101034.70;1795722;79;25641;-72
2022/01/15 10:39:34;;;;;;;20.08;7.53;;;;;;;4.03;67.30;101041.92;1794889;79;27895;-72
2022/01/15 10:42:01;;;;;;;14.95;5.22;;;;;;;3.95;67.98;101041.53;1795598;79;25610;-72
2022/01/15 10:44:35;;;;;;;18.20;6.00;;;;;;;3.88;68.05;101040.37;1740610;79;25559;-72
2022/01/15 10:47:13;;;;;;;27.22;10.78;;;;;;;3.81;68.60;101053.11;1795695;79;25681;-71
2022/01/15 10:49:41;;;;;;;21.17;7.28;;;;;;;3.72;68.77;101057.53;1796016;79;25583;-71
2022/01/15 10:52:23;;;;;;;23.15;7.65;;;;;;;3.60;68.81;101060.83;1801631;79;27345;-71
2022/01/15 10:55:10;;;;;;;20.88;7.80;;;;;;;3.48;69.26;101066.79;1795555;79;25574;-72
2022/01/15 10:57:45;;;;;;;12.85;5.65;;;;;;;3.38;69.43;101065.28;1775805;79;25578;-72
2022/01/15 11:00:17;;;;;;;19.75;6.55;;;;;;;3.26;69.84;101066.16;1793617;79;25691;-73
2022/01/15 11:02:49;;;;;;;24.90;7.70;;;;;;;3.16;69.54;101065.44;1794844;79;25400;-71
2022/01/15 11:05:27;;;;;;;18.15;5.97;;;;;;;3.09;69.92;101073.34;1795697;79;27472;-72
2022/01/15 11:08:18;;;;;;;15.72;5.90;;;;;;;3.01;70.18;101088.41;1795610;79;25217;-72
2022/01/15 11:10:59;;;;;;;11.75;6.25;;;;;;;2.91;70.80;101090.36;1735707;81;25575;-70
2022/01/15 11:13:49;;;;;;;17.62;7.03;;;;;;;2.87;71.36;101086.55;1755533;81;25621;-73
2022/01/15 11:16:18;;;;;;;20.50;6.83;;;;;;;2.87;71.51;101095.91;1794767;79;25412;-71
2022/01/15 11:18:54;;;;;;;16.48;6.22;;;;;;;2.83;71.70;101086.72;1795792;79;27507;-70
2022/01/15 11:21:27;;;;;;;20.60;7.22;;;;;;;2.79;71.83;101084.55;1795461;79;25751;-72
2022/01/15 11:23:56;;;;;;;19.65;6.42;;;;;;;2.77;71.93;101083.95;1795847;79;25540;-72
2022/01/15 11:26:28;;;;;;;14.45;6.20;;;;;;;2.72;71.87;101090.53;1795750;79;25693;-72
2022/01/15 11:28:57;;;;;;;13.95;5.42;;;;;;;2.66;71.85;101090.16;1800565;79;25522;-72
2022/01/15 11:31:28;;;;;;;20.05;5.78;;;;;;;2.61;71.97;101098.88;1801909;79;27324;-72
2022/01/15 11:33:57;;;;;;;16.27;5.33;;;;;;;2.54;72.05;101098.73;1801631;79;25560;-72
2022/01/15 11:36:38;;;;;;;;;;;;;;;2.50;72.43;101099.70;1804432;79;25444;-72
2022/01/15 11:39:12;;;;;;;9.55;4.28;;;;;;;2.43;72.46;101095.84;1801747;78;25584;-72
2022/01/15 11:41:45;;;;;;;15.03;4.97;;;;;;;2.39;72.75;101091.20;1801789;79;25547;-71
2022/01/15 11:44:22;;;;;;;15.43;6.45;;;;;;;2.37;72.94;101089.30;1801744;79;27904;-71
2022/01/15 11:46:54;;;;;;;15.83;6.10;;;;;;;2.39;73.29;101087.20;1796854;79;25580;-72
2022/01/15 11:49:35;;;;;;;14.90;7.20;;;;;;;2.38;73.32;101085.56;1801794;79;25614;-72
2022/01/15 11:52:14;;;;;;;15.00;5.67;;;;;;;2.46;73.62;101097.75;1801699;79;25634;-71
2022/01/15 11:55:03;;;;;;;22.42;8.78;;;;;;;2.50;73.52;101097.56;1801973;79;25393;-72
2022/01/15 11:57:35;;;;;;;13.53;5.30;;;;;;;2.48;73.67;101092.45;1827932;78;27341;-71